createdAt,value
2023-03-27T00:02:51.711Z,90.00
2023-03-27T00:12:55.229Z,90.55
2023-03-27T00:23:00.855Z,90.32
2023-03-27T00:33:04.134Z,91.88
2023-03-27T00:43:21.566Z,92.60
2023-03-27T00:53:28.089Z,93.05
2023-03-27T01:03:33.526Z,93.78
2023-03-27T01:13:52.136Z,96.08
2023-03-27T01:24:28.507Z,96.99
2023-03-27T01:35:26.527Z,96.87
2023-03-27T01:45:36.776Z,96.89
2023-03-27T01:55:44.946Z,98.74
2023-03-27T02:05:56.396Z,97.21
2023-03-27T02:16:02.830Z,97.69
2023-03-27T02:26:09.920Z,98.34
2023-03-27T02:36:24.093Z,99.29
2023-03-27T02:46:34.134Z,98.94
2023-03-27T02:56:43.598Z,100.00
2023-03-27T03:06:56.222Z,100.00
2023-03-27T03:16:59.666Z,100.00
2023-03-27T03:27:05.727Z,100.00
2023-03-27T03:37:17.961Z,100.00
2023-03-27T03:47:22.288Z,100.00
2023-03-27T03:57:26.032Z,100.00
2023-03-27T04:07:51.230Z,100.00
2023-03-27T04:18:24.759Z,100.00
2023-03-27T04:28:30.400Z,100.00
2023-03-27T04:38:47.981Z,100.00
2023-03-27T04:48:54.304Z,100.00
2023-03-27T04:59:16.704Z,100.00
2023-03-27T05:09:27.517Z,100.00
2023-03-27T05:19:30.986Z,100.00
2023-03-27T05:29:47.034Z,100.00
2023-03-27T05:39:52.979Z,100.00
2023-03-27T05:49:57.470Z,100.00
2023-03-27T06:00:00.893Z,100.00
2023-03-27T06:10:07.648Z,100.00
2023-03-27T06:20:21.407Z,100.00
2023-03-27T06:30:30.347Z,100.00
2023-03-27T06:41:00.660Z,100.00
2023-03-27T06:51:28.056Z,100.00
2023-03-27T07:01:31.236Z,100.00
2023-03-27T07:11:52.628Z,100.00
2023-03-27T07:21:56.367Z,100.00
2023-03-27T07:32:07.151Z,100.00
2023-03-27T07:42:19.653Z,100.00
2023-03-27T07:52:40.530Z,100.00
2023-03-27T08:02:45.668Z,100.00
2023-03-27T08:12:52.261Z,98.56
2023-03-27T08:23:00.751Z,95.93
2023-03-27T08:33:09.879Z,93.71
2023-03-27T08:43:18.768Z,91.11
2023-03-27T08:53:34.152Z,90.51
2023-03-27T09:03:47.257Z,86.89
2023-03-27T09:13:53.267Z,80.03
2023-03-27T09:24:03.209Z,76.78
2023-03-27T09:34:26.569Z,92.05
2023-03-27T09:44:35.349Z,100.00
2023-03-27T09:54:53.965Z,100.00
2023-03-27T10:05:22.655Z,99.42
2023-03-27T10:15:41.420Z,97.22
2023-03-27T10:25:52.003Z,96.44
2023-03-27T10:36:00.934Z,90.53
2023-03-27T10:46:12.501Z,87.30
2023-03-27T10:56:27.484Z,78.60
2023-03-27T11:06:35.217Z,89.83
2023-03-27T11:16:44.354Z,100.00
2023-03-27T11:27:09.989Z,100.00
2023-03-27T11:37:22.180Z,100.00
2023-03-27T11:47:40.990Z,100.00
2023-03-27T11:58:04.388Z,100.00
2023-03-27T12:08:28.508Z,79.28
2023-03-27T12:18:51.190Z,80.89
2023-03-27T12:29:23.708Z,82.40
2023-03-27T12:39:47.016Z,81.13
2023-03-27T12:49:59.005Z,85.63
2023-03-27T13:00:22.137Z,81.98
2023-03-27T13:10:40.407Z,74.53
2023-03-27T13:20:48.953Z,66.83
2023-03-27T13:30:53.820Z,65.58
2023-03-27T13:42:10.860Z,65.31
2023-03-27T13:52:45.592Z,64.28
2023-03-27T14:03:24.466Z,65.57
2023-03-27T14:13:51.144Z,63.81
2023-03-27T14:24:01.083Z,57.76
2023-03-27T14:34:22.458Z,55.33
2023-03-27T14:44:28.658Z,54.97
2023-03-27T14:54:44.636Z,55.51
2023-03-27T15:05:11.414Z,68.11
2023-03-27T15:15:34.564Z,68.61
2023-03-27T15:25:42.848Z,61.53
2023-03-27T15:35:52.703Z,65.01
2023-03-27T15:46:02.212Z,62.19
2023-03-27T15:56:16.001Z,63.52
2023-03-27T16:06:32.721Z,65.49
2023-03-27T16:16:37.845Z,67.12
2023-03-27T16:26:40.908Z,62.22
2023-03-27T16:36:45.322Z,60.06
2023-03-27T16:46:48.346Z,61.56
2023-03-27T16:56:53.201Z,59.00
2023-03-27T17:06:56.489Z,61.13
2023-03-27T17:17:01.388Z,59.40
2023-03-27T17:27:04.567Z,63.96
2023-03-27T17:37:14.576Z,67.12
2023-03-27T17:47:17.961Z,68.20
2023-03-27T17:57:29.591Z,70.11
2023-03-27T18:07:32.734Z,73.45
2023-03-27T18:17:37.165Z,75.68
2023-03-27T18:27:42.011Z,77.66
2023-03-27T18:37:47.292Z,78.72
2023-03-27T18:47:50.339Z,80.14
2023-03-27T18:57:54.891Z,81.42
2023-03-27T19:07:59.430Z,81.32
2023-03-27T19:18:04.074Z,81.16
2023-03-27T19:28:30.096Z,81.24
2023-03-27T19:38:37.337Z,81.30
2023-03-27T19:48:40.490Z,82.06
2023-03-27T19:58:52.280Z,83.36
2023-03-27T20:08:55.570Z,83.93
2023-03-27T20:19:05.876Z,84.91
2023-03-27T20:29:11.157Z,85.22
2023-03-27T20:39:17.020Z,87.43
2023-03-27T20:59:32.337Z,87.54
2023-03-27T21:09:35.395Z,88.50
2023-03-27T21:19:39.763Z,91.45
2023-03-27T21:29:42.860Z,91.24
2023-03-27T21:39:47.288Z,90.19
2023-03-27T21:49:50.402Z,91.06
2023-03-27T21:59:54.769Z,92.64
2023-03-27T22:09:57.827Z,92.05
2023-03-27T22:20:02.180Z,92.61
2023-03-27T22:30:06.023Z,95.13
2023-03-27T22:40:12.081Z,94.23
2023-03-27T22:50:15.843Z,94.43
2023-03-27T23:00:21.275Z,94.89
2023-03-27T23:10:24.289Z,97.55
2023-03-27T23:20:28.720Z,95.87
2023-03-27T23:30:31.677Z,97.02
2023-03-27T23:40:36.172Z,98.12
2023-03-27T23:50:39.186Z,97.76
